.
WxDataArchive / Data Records for 2015-08-17
2015-08-16 August 2015 2015-08-18

Data Records for Monday, 17 August 2015

Time	Temp	Chill	HIndex	Humid	Dewpt	 Wind 	HiWind	WindDir	Rain 	Barom
-----	----	-----	------	-----	-----	------	------	-------	-----	-----
00:00	74.0	74.0	74.0	90	70.9	0	0	---	0.00	30.048 
00:05	74.0	74.0	74.0	90	70.9	0	0	---	0.00	30.048 
00:10	73.9	73.9	73.9	90	70.8	0	0	---	0.00	30.048 
00:15	73.9	73.9	73.9	90	70.8	0	0	---	0.00	30.042 
00:20	73.7	73.7	73.7	90	70.6	0	0	---	0.00	30.042 
00:25	73.7	73.7	73.7	91	70.9	0	0	---	0.00	30.042 
00:30	73.5	73.5	73.5	91	70.7	0	0	---	0.00	30.041 
00:35	73.5	73.5	73.5	91	70.7	0	0	---	0.00	30.041 
00:40	73.5	73.5	73.5	91	70.7	0	0	---	0.00	30.041 
00:45	73.3	73.3	73.3	91	70.5	0	0	---	0.00	30.044 
00:50	73.2	73.2	73.2	91	70.4	0	0	---	0.00	30.044 
00:55	73.2	73.2	73.2	91	70.4	0	0	---	0.00	30.044 
01:00	73.0	73.0	73.0	91	70.2	0	0	---	0.00	30.047 
01:05	73.0	73.0	73.0	91	70.2	0	0	---	0.00	30.047 
01:10	72.8	72.8	72.8	91	70.0	0	0	---	0.00	30.047 
01:15	72.8	72.8	72.8	91	70.0	0	0	---	0.00	30.046 
01:20	72.7	72.7	72.7	91	69.9	0	0	---	0.00	30.046 
01:25	72.5	72.5	72.5	91	69.7	0	0	---	0.00	30.046 
01:30	72.5	72.5	72.5	91	69.7	0	0	---	0.00	30.048 
01:35	72.3	72.3	72.3	92	69.8	0	0	---	0.00	30.048 
01:40	72.3	72.3	72.3	92	69.8	0	0	---	0.00	30.048 
01:45	72.1	72.1	72.1	92	69.6	0	0	---	0.00	30.043 
01:50	72.1	72.1	72.1	92	69.6	0	0	---	0.00	30.043 
01:55	72.0	72.0	72.0	92	69.5	0	0	---	0.00	30.043 
02:00	72.0	72.0	72.0	92	69.5	0	0	---	0.00	30.041 
02:05	71.8	71.8	71.8	92	69.3	0	0	---	0.00	30.041 
02:10	71.8	71.8	71.8	92	69.3	0	0	---	0.00	30.041 
02:15	71.8	71.8	71.8	92	69.3	0	0	---	0.00	30.034 
02:20	71.6	71.6	71.6	92	69.1	0	0	---	0.00	30.034 
02:25	71.6	71.6	71.6	92	69.1	0	0	---	0.00	30.034 
02:30	71.5	71.5	71.5	92	69.0	0	0	---	0.00	30.034 
02:35	71.5	71.5	71.5	92	69.0	0	0	---	0.00	30.034 
02:40	71.5	71.5	71.5	92	69.0	0	0	---	0.00	30.034 
02:45	71.3	71.3	71.3	92	68.8	0	0	---	0.00	30.033 
02:50	71.3	71.3	71.3	92	68.8	0	0	---	0.00	30.033 
02:55	71.3	71.3	71.3	92	68.8	0	0	---	0.00	30.033 
03:00	71.3	71.3	71.3	92	68.8	0	0	---	0.00	30.032 
03:05	71.3	71.3	71.3	92	68.8	0	0	---	0.00	30.032 
03:10	71.1	71.1	71.1	92	68.7	0	0	---	0.00	30.032 
03:15	71.1	71.1	71.1	92	68.7	0	0	---	0.00	30.032 
03:20	71.1	71.1	71.1	92	68.7	0	0	---	0.00	30.032 
03:25	71.1	71.1	71.1	92	68.7	0	0	---	0.00	30.032 
03:30	70.9	70.9	70.9	92	68.5	0	0	---	0.00	30.030 
03:35	70.9	70.9	70.9	92	68.5	0	0	---	0.00	30.030 
03:40	70.9	70.9	70.9	92	68.5	0	0	---	0.00	30.030 
03:45	70.9	70.9	70.9	93	68.8	0	0	---	0.00	30.027 
03:50	70.9	70.9	70.9	93	68.8	0	0	---	0.00	30.027 
03:55	70.8	70.8	70.8	93	68.7	0	0	---	0.00	30.027 
04:00	70.8	70.8	70.8	93	68.7	0	0	---	0.00	30.031 
04:05	70.8	70.8	70.8	93	68.7	0	0	---	0.00	30.031 
04:10	70.8	70.8	70.8	93	68.7	0	0	---	0.00	30.031 
04:15	70.8	70.8	70.8	93	68.7	0	0	---	0.00	30.027 
04:20	70.8	70.8	70.8	93	68.7	0	0	---	0.00	30.027 
04:25	70.8	70.8	70.8	93	68.7	0	0	---	0.00	30.027 
04:30	70.8	70.8	70.8	93	68.7	0	0	---	0.00	30.028 
04:35	70.8	70.8	70.8	93	68.7	0	0	---	0.00	30.028 
04:40	70.8	70.8	70.8	93	68.7	0	0	---	0.00	30.028 
04:45	70.8	70.8	70.8	93	68.7	0	0	---	0.00	30.032 
04:50	70.8	70.8	70.8	93	68.7	0	0	---	0.00	30.032 
04:55	70.8	70.8	70.8	93	68.7	0	0	---	0.00	30.032 
05:00	70.8	70.8	70.8	93	68.7	0	0	---	0.00	30.029 
05:05	70.8	70.8	70.8	93	68.7	0	0	---	0.00	30.029 
05:10	70.8	70.8	70.8	93	68.7	0	0	---	0.00	30.029 
05:15	70.8	70.8	70.8	93	68.7	0	0	---	0.00	30.032 
05:20	70.9	70.9	70.9	93	68.8	0	0	---	0.00	30.032 
05:25	70.9	70.9	70.9	93	68.8	0	0	---	0.00	30.032 
05:30	70.9	70.9	70.9	93	68.8	0	0	---	0.00	30.033 
05:35	70.9	70.9	70.9	93	68.8	0	0	---	0.00	30.033 
05:40	70.9	70.9	70.9	93	68.8	0	0	---	0.00	30.033 
05:45	70.8	70.8	70.8	93	68.7	0	0	---	0.00	30.031 
05:50	70.6	70.6	70.6	93	68.5	0	0	---	0.00	30.031 
05:55	70.6	70.6	70.6	93	68.5	0	0	---	0.00	30.031 
06:00	70.4	70.4	70.4	93	68.3	0	0	---	0.00	30.034 
06:05	70.4	70.4	70.4	93	68.3	0	0	---	0.00	30.034 
06:10	70.3	70.3	70.3	93	68.2	0	0	---	0.00	30.034 
06:15	70.1	70.1	70.1	93	68.0	0	0	---	0.00	30.038 
06:20	69.9	69.9	69.9	93	67.8	0	0	---	0.00	30.038 
06:25	69.9	69.9	69.9	93	67.8	0	0	---	0.00	30.038 
06:30	69.8	69.8	69.8	93	67.7	0	0	---	0.00	30.041 
06:35	69.6	69.6	69.6	93	67.5	0	0	---	0.00	30.041 
06:40	69.6	69.6	69.6	93	67.5	0	0	---	0.00	30.041 
06:45	69.4	69.4	69.4	93	67.3	0	0	---	0.00	30.044 
06:50	69.4	69.4	69.4	93	67.3	0	0	---	0.00	30.044 
06:55	69.4	69.4	69.4	94	67.6	0	0	---	0.00	30.044 
07:00	69.4	69.4	69.4	94	67.6	0	0	---	0.00	30.051 
07:05	69.4	69.4	69.4	94	67.6	0	0	---	0.00	30.051 
07:10	69.4	69.4	69.4	94	67.6	0	0	---	0.00	30.051 
07:15	69.4	69.4	69.4	94	67.6	0	0	---	0.00	30.051 
07:20	69.4	69.4	69.4	94	67.6	0	0	---	0.00	30.051 
07:25	69.4	69.4	69.4	94	67.6	0	0	---	0.00	30.051 
07:30	69.4	69.4	69.4	94	67.6	0	0	---	0.00	30.052 
07:35	69.6	69.6	69.6	94	67.8	0	0	---	0.00	30.052 
07:40	69.6	69.6	69.6	94	67.8	0	0	---	0.00	30.052 
07:45	69.8	69.8	69.8	94	68.0	0	0	---	0.00	30.056 
07:50	69.8	69.8	69.8	94	68.0	0	0	---	0.00	30.056 
07:55	69.9	69.9	69.9	95	68.4	0	0	---	0.00	30.056 
08:00	70.3	70.3	70.3	95	68.8	0	0	---	0.00	30.055 
08:05	70.8	70.8	70.8	95	69.3	0	0	---	0.00	30.055 
08:10	71.3	71.3	71.3	94	69.5	0	0	---	0.00	30.055 
08:15	71.8	71.8	71.8	94	70.0	0	0	---	0.00	30.055 
08:20	72.1	72.1	72.1	93	70.0	0	0	---	0.00	30.055 
08:25	72.5	72.5	72.5	93	70.4	0	0	---	0.00	30.055 
08:30	73.2	73.2	73.2	92	70.7	0	0	---	0.00	30.056 
08:35	73.5	73.5	73.5	91	70.7	0	1	22	0.00	30.056 
08:40	73.7	73.7	73.7	90	70.6	0	0	---	0.00	30.056 
08:45	74.0	74.0	74.0	89	70.5	0	0	---	0.00	30.054 
08:50	74.4	74.4	74.4	88	70.6	0	1	22	0.00	30.054 
08:55	74.6	74.6	74.6	87	70.5	0	1	22	0.00	30.054 
09:00	74.7	74.7	74.7	86	70.2	0	0	---	0.00	30.058 
09:05	74.9	74.9	74.9	86	70.4	0	0	---	0.00	30.058 
09:10	75.3	75.3	75.4	85	70.5	0	0	---	0.00	30.058 
09:15	75.3	75.3	75.5	84	70.1	0	1	22	0.00	30.058 
09:20	75.4	75.4	75.9	82	69.5	0	1	22	0.00	30.058 
09:25	75.8	75.8	76.5	82	69.9	0	1	22	0.00	30.058 
09:30	76.1	76.1	77.1	81	69.8	0	0	---	0.00	30.055 
09:35	76.3	76.3	77.5	80	69.7	0	1	22	0.00	30.055 
09:40	76.5	76.5	77.9	78	69.1	0	1	22	0.00	30.055 
09:45	76.5	76.5	77.9	78	69.1	0	1	22	0.00	30.053 
09:50	76.7	76.7	78.2	77	68.9	0	1	22	0.00	30.053 
09:55	76.7	76.7	78.2	77	68.9	0	0	---	0.00	30.053 
10:00	76.8	76.8	78.4	77	69.0	0	1	22	0.00	30.052 
10:05	77.0	77.0	78.7	75	68.5	0	1	22	0.00	30.052 
10:10	77.6	77.6	79.6	75	69.0	0	1	22	0.00	30.052 
10:15	78.3	78.3	80.6	74	69.3	0	1	22	0.00	30.051 
10:20	78.8	78.8	81.3	73	69.4	1	3	0	0.00	30.051 
10:25	79.2	79.2	81.9	72	69.4	0	1	0	0.00	30.051 
10:30	79.4	79.4	82.2	72	69.6	0	3	338	0.00	30.049 
10:35	79.8	79.8	82.6	70	69.1	1	3	292	0.00	30.049 
10:40	79.8	79.8	82.6	70	69.1	1	3	292	0.00	30.049 
10:45	80.1	80.1	83.0	69	69.0	0	3	292	0.00	30.047 
10:50	80.5	80.5	83.6	69	69.4	0	1	292	0.00	30.047 
10:55	80.9	80.9	84.1	68	69.3	1	3	292	0.00	30.047 
11:00	80.9	80.9	84.0	67	68.9	0	4	292	0.00	30.048 
11:05	80.9	80.9	84.0	67	68.9	0	2	292	0.00	30.048 
11:10	80.9	80.9	84.0	67	68.9	0	2	292	0.00	30.048 
11:15	80.7	80.7	83.8	68	69.1	0	1	292	0.00	30.051 
11:20	80.7	80.7	84.0	69	69.6	0	1	292	0.00	30.051 
11:25	80.7	80.7	84.0	69	69.6	0	1	292	0.00	30.051 
11:30	80.5	80.5	83.6	69	69.4	0	1	292	0.00	30.051 
11:35	80.5	80.5	83.6	69	69.4	0	1	292	0.00	30.051 
11:40	80.3	80.3	83.3	69	69.2	0	1	292	0.00	30.051 
11:45	80.5	80.5	83.8	70	69.8	0	0	---	0.00	30.048 
11:50	80.5	80.5	83.6	69	69.4	0	0	---	0.00	30.048 
11:55	80.7	80.7	84.0	69	69.6	0	1	292	0.00	30.048 
12:00	80.9	80.9	84.3	69	69.8	0	1	292	0.00	30.045 
12:05	81.4	81.4	85.0	68	69.8	0	2	292	0.00	30.045 
12:10	82.2	82.2	86.1	67	70.1	0	2	292	0.00	30.045 
12:15	82.6	82.6	86.6	66	70.1	0	1	292	0.00	30.039 
12:20	82.6	82.6	86.4	65	69.6	0	2	292	0.00	30.039 
12:25	82.6	82.6	86.4	65	69.6	0	3	292	0.00	30.039 
12:30	82.6	82.6	86.2	64	69.2	0	3	292	0.00	30.035 
12:35	82.8	82.8	86.5	64	69.3	0	2	292	0.00	30.035 
12:40	82.8	82.8	86.3	63	68.9	0	2	292	0.00	30.035 
12:45	82.8	82.8	86.5	64	69.3	0	3	292	0.00	30.035 
12:50	82.8	82.8	86.7	65	69.8	0	2	292	0.00	30.035 
12:55	82.8	82.8	86.3	63	68.9	1	2	292	0.00	30.035 
13:00	83.0	83.0	87.1	65	70.0	0	2	292	0.00	30.029 
13:05	83.0	83.0	86.9	64	69.5	1	3	292	0.00	30.029 
13:10	83.4	83.4	87.8	65	70.4	0	1	292	0.00	30.029 
13:15	84.0	84.0	87.8	61	69.1	0	2	292	0.00	30.020 
13:20	84.5	84.5	89.0	62	70.0	0	1	292	0.00	30.020 
13:25	85.1	85.1	90.1	62	70.6	0	1	292	0.00	30.020 
13:30	85.5	85.5	89.5	58	69.0	0	1	292	0.00	30.017 
13:35	85.7	85.7	88.9	55	67.6	0	2	292	0.00	30.017 
13:40	85.7	85.7	89.2	56	68.2	0	1	292	0.00	30.017 
13:45	85.5	85.5	88.9	56	68.0	0	3	292	0.00	30.008 
13:50	85.3	85.3	88.5	56	67.8	0	3	22	0.00	30.008 
13:55	85.1	85.1	88.5	57	68.1	0	2	22	0.00	30.008 
14:00	84.9	84.9	88.2	57	67.9	0	1	22	0.00	30.009 
14:05	84.9	84.9	88.2	57	67.9	0	2	22	0.00	30.009 
14:10	85.3	85.3	88.8	57	68.3	0	2	22	0.00	30.009 
14:15	85.5	85.5	88.9	56	68.0	0	1	22	0.00	30.004 
14:20	85.7	85.7	89.2	56	68.2	0	4	22	0.00	30.004 
14:25	85.7	85.7	89.2	56	68.2	0	1	90	0.00	30.004 
14:30	85.5	85.5	89.2	57	68.5	0	2	90	0.00	30.002 
14:35	85.3	85.3	88.8	57	68.3	0	2	90	0.00	30.002 
14:40	85.3	85.3	88.5	56	67.8	0	3	90	0.00	30.002 
14:45	85.3	85.3	88.2	55	67.3	0	2	90	0.00	29.989 
14:50	85.1	85.1	87.9	55	67.1	0	2	90	0.00	29.989 
14:55	84.7	84.7	87.9	57	67.7	0	1	90	0.00	29.989 
15:00	84.3	84.3	87.5	58	67.9	0	2	90	0.00	29.990 
15:05	84.0	84.0	87.0	58	67.6	0	1	90	0.00	29.990 
15:10	83.4	83.4	86.3	59	67.5	0	2	90	0.00	29.990 
15:15	82.8	82.8	85.8	61	67.9	0	2	90	0.00	29.994 
15:20	82.4	82.4	85.6	63	68.5	0	1	90	0.00	29.994 
15:25	82.0	82.0	85.2	64	68.6	0	1	90	0.00	29.994 
15:30	81.4	81.4	84.1	63	67.6	2	4	90	0.00	29.992 
15:35	81.1	81.1	84.0	65	68.2	1	4	90	0.00	29.992 
15:40	80.7	80.7	83.4	65	67.8	1	3	90	0.00	29.992 
15:45	80.5	80.5	83.1	65	67.6	1	4	90	0.00	29.990 
15:50	80.5	80.5	83.1	65	67.6	1	2	90	0.00	29.990 
15:55	80.7	80.7	83.4	65	67.8	0	2	90	0.00	29.990 
16:00	81.1	81.1	84.1	66	68.6	0	1	90	0.00	29.985 
16:05	81.2	81.2	83.8	63	67.4	0	1	90	0.00	29.985 
16:10	81.2	81.2	83.8	63	67.4	0	1	90	0.00	29.985 
16:15	81.2	81.2	83.6	62	66.9	0	0	---	0.00	29.983 
16:20	81.4	81.4	83.9	62	67.1	0	2	90	0.00	29.983 
16:25	81.4	81.4	84.1	63	67.6	0	1	90	0.00	29.983 
16:30	81.4	81.4	84.1	63	67.6	0	1	90	0.00	29.981 
16:35	81.6	81.6	84.0	61	66.8	0	2	90	0.00	29.981 
16:40	81.6	81.6	84.4	63	67.8	0	1	90	0.00	29.981 
16:45	81.6	81.6	84.2	62	67.3	0	1	90	0.00	29.979 
16:50	81.6	81.6	84.2	62	67.3	0	0	---	0.00	29.979 
16:55	81.6	81.6	84.4	63	67.8	0	0	---	0.00	29.979 
17:00	81.6	81.6	84.6	64	68.2	0	1	90	0.00	29.977 
17:05	81.6	81.6	84.6	64	68.2	0	1	90	0.00	29.977 
17:10	81.6	81.6	84.7	65	68.7	0	1	90	0.00	29.977 
17:15	81.4	81.4	84.4	65	68.5	0	1	90	0.00	29.978 
17:20	81.4	81.4	84.4	65	68.5	0	1	90	0.00	29.978 
17:25	81.4	81.4	84.4	65	68.5	0	1	90	0.00	29.978 
17:30	81.6	81.6	84.6	64	68.2	0	1	90	0.00	29.975 
17:35	81.8	81.8	85.1	65	68.9	0	1	90	0.00	29.975 
17:40	82.4	82.4	85.4	62	68.0	0	1	90	0.00	29.975 
17:45	82.8	82.8	85.8	61	67.9	1	3	90	0.00	29.963 
17:50	83.2	83.2	86.2	60	67.8	0	3	90	0.00	29.963 
17:55	83.4	83.4	86.5	60	68.0	0	3	112	0.00	29.963 
18:00	83.0	83.0	85.7	59	67.2	1	4	112	0.00	29.961 
18:05	82.6	82.6	85.3	60	67.3	1	3	90	0.00	29.961 
18:10	82.2	82.2	84.9	61	67.4	0	2	90	0.00	29.961 
18:15	81.8	81.8	84.3	61	67.0	0	2	90	0.00	29.959 
18:20	81.6	81.6	84.2	62	67.3	0	1	90	0.00	29.959 
18:25	81.2	81.2	83.6	62	66.9	0	1	90	0.00	29.959 
18:30	81.1	81.1	83.6	63	67.3	0	1	90	0.00	29.962 
18:35	80.9	80.9	83.4	63	67.1	0	1	90	0.00	29.962 
18:40	80.7	80.7	83.2	64	67.4	0	1	90	0.00	29.962 
18:45	80.5	80.5	82.9	64	67.2	0	1	90	0.00	29.961 
18:50	80.3	80.3	82.7	64	67.0	0	1	90	0.00	29.961 
18:55	80.1	80.1	82.5	65	67.2	0	1	90	0.00	29.961 
19:00	79.9	79.9	82.2	65	67.1	0	1	90	0.00	29.966 
19:05	79.9	79.9	82.3	66	67.5	0	1	90	0.00	29.966 
19:10	79.6	79.6	81.7	64	66.3	0	3	248	0.00	29.966 
19:15	78.3	78.3	79.9	58	62.3	1	3	270	0.00	29.983 
19:20	76.3	76.3	78.0	68	64.9	1	3	315	0.10	29.983 
19:25	73.2	73.2	73.2	74	64.4	1	4	270	0.11	29.983 
19:30	71.3	71.3	71.3	80	64.8	0	2	270	0.01	29.983 
19:35	70.3	70.3	70.3	84	65.2	0	1	270	0.00	29.983 
19:40	69.6	69.6	69.6	86	65.2	0	1	270	0.00	29.983 
19:45	69.1	69.1	69.1	87	65.1	0	2	270	0.00	29.986 
19:50	68.8	68.8	68.8	88	65.1	0	3	270	0.00	29.986 
19:55	68.6	68.6	68.6	89	65.2	0	1	270	0.01	29.986 
20:00	68.6	68.6	68.6	89	65.2	0	1	270	0.00	29.995 
20:05	68.4	68.4	68.4	90	65.3	0	1	270	0.01	29.995 
20:10	68.4	68.4	68.4	90	65.3	0	0	---	0.01	29.995 
20:15	68.4	68.4	68.4	91	65.7	0	0	---	0.01	30.000 
20:20	68.4	68.4	68.4	91	65.7	0	0	---	0.01	30.000 
20:25	68.4	68.4	68.4	92	66.0	0	0	---	0.01	30.000 
20:30	68.4	68.4	68.4	92	66.0	0	0	---	0.01	30.004 
20:35	68.4	68.4	68.4	92	66.0	0	0	---	0.01	30.004 
20:40	68.6	68.6	68.6	92	66.2	0	0	---	0.01	30.004 
20:45	68.6	68.6	68.6	92	66.2	0	0	---	0.01	29.999 
20:50	68.6	68.6	68.6	92	66.2	0	0	---	0.00	29.999 
20:55	68.6	68.6	68.6	93	66.5	0	0	---	0.01	29.999 
21:00	68.6	68.6	68.6	93	66.5	0	1	270	0.00	29.997 
21:05	68.6	68.6	68.6	93	66.5	0	0	---	0.01	29.997 
21:10	68.4	68.4	68.4	93	66.3	0	1	270	0.00	29.997 
21:15	68.4	68.4	68.4	93	66.3	0	1	270	0.00	29.993 
21:20	68.4	68.4	68.4	93	66.3	0	1	270	0.00	29.993 
21:25	68.4	68.4	68.4	93	66.3	0	1	270	0.00	29.993 
21:30	68.3	68.3	68.3	93	66.2	0	0	---	0.00	29.985 
21:35	68.3	68.3	68.3	93	66.2	0	1	270	0.00	29.985 
21:40	68.3	68.3	68.3	93	66.2	0	0	---	0.00	29.985 
21:45	68.3	68.3	68.3	93	66.2	0	0	---	0.00	29.992 
21:50	68.3	68.3	68.3	94	66.5	0	0	---	0.00	29.992 
21:55	68.3	68.3	68.3	94	66.5	0	0	---	0.00	29.992 
22:00	68.1	68.1	68.1	94	66.3	0	0	---	0.00	29.995 
22:05	68.1	68.1	68.1	94	66.3	0	1	270	0.00	29.995 
22:10	68.3	68.3	68.3	94	66.5	0	0	---	0.00	29.995 
22:15	68.3	68.3	68.3	94	66.5	0	0	---	0.00	29.983 
22:20	68.3	68.3	68.3	94	66.5	0	0	---	0.00	29.983 
22:25	68.3	68.3	68.3	94	66.5	0	0	---	0.00	29.983 
22:30	68.3	68.3	68.3	94	66.5	0	0	---	0.00	29.980 
22:35	68.3	68.3	68.3	94	66.5	0	0	---	0.00	29.980 
22:40	68.3	68.3	68.3	94	66.5	0	1	270	0.00	29.980 
22:45	68.3	68.3	68.3	94	66.5	0	0	---	0.00	29.977 
22:50	68.3	68.3	68.3	94	66.5	0	0	---	0.00	29.977 
22:55	68.3	68.3	68.3	94	66.5	0	0	---	0.00	29.977 
23:00	68.1	68.1	68.1	94	66.3	0	0	---	0.00	29.974 
23:05	68.1	68.1	68.1	94	66.3	0	0	---	0.00	29.974 
23:10	68.1	68.1	68.1	94	66.3	0	0	---	0.00	29.974 
23:15	68.1	68.1	68.1	94	66.3	0	0	---	0.00	29.975 
23:20	68.1	68.1	68.1	94	66.3	0	0	---	0.00	29.975 
23:25	68.1	68.1	68.1	95	66.6	0	0	---	0.00	29.975 
23:30	68.1	68.1	68.1	95	66.6	0	1	270	0.00	29.976 
23:35	67.9	67.9	67.9	95	66.4	0	0	---	0.00	29.976 
23:40	67.9	67.9	67.9	95	66.4	0	0	---	0.00	29.976 
23:45	67.9	67.9	67.9	95	66.4	0	0	---	0.00	29.972 
23:50	67.9	67.9	67.9	95	66.4	0	1	270	0.00	29.972 
23:55	67.8	67.8	67.8	95	66.3	0	0	---	0.00	29.972 

CoCoRaHS
IN-AL-39
A2 Web Hosting
Creative Commons License
GoDaddy
search engine by freefind advanced

loaded 2018-11-14 04:03:42 • last modified 2010-11-18 10:43:29
Privacy PolicyDisclaimer
• wx.awcolley.com is powered by PmWiki v.2002016 •
• all content (unless otherwise noted) © 2018 A W Colley